Time;durP1;ratioP1;P1;durP2;ratioP2;P2;SDS_P1;SDS_P2;PMS_P1;PMS_P2;Temp;Humidity;BMP_temperature;BMP_pressure;BME280_temperature;BME280_humidity;BME280_pressure;Samples;Min_cycle;Max_cycle;Signal;HPM_P1;HPM_P2
2021/12/05 00:23:14;;;;;;;11.57;2.57;;;5.30;99.90;;;;;;6226771;23;20158;-82
2021/12/05 00:25:44;;;;;;;11.57;1.90;;;5.30;99.90;;;;;;6196215;23;20279;-82
2021/12/05 00:31:04;;;;;;;8.73;2.80;;;5.40;99.90;;;;;;6222832;23;20160;-82
2021/12/05 00:37:11;;;;;;;11.57;3.50;;;5.40;99.90;;;;;;6227099;23;20270;-81
2021/12/05 01:15:44;;;;;;;6.43;1.77;;;5.50;99.90;;;;;;6227806;23;20185;-91
2021/12/05 01:18:17;;;;;;;6.10;1.63;;;5.70;99.90;;;;;;6193057;23;20486;-92
2021/12/05 01:20:52;;;;;;;6.77;1.53;;;5.70;99.90;;;;;;6192805;23;20154;-92
2021/12/05 01:31:15;;;;;;;6.93;1.93;;;5.70;99.90;;;;;;6228744;23;20573;-93
2021/12/05 01:49:45;;;;;;;9.27;2.33;;;5.60;99.90;;;;;;6226502;23;20231;-94
2021/12/05 01:55:33;;;;;;;7.53;2.47;;;5.70;99.90;;;;;;6217736;23;20224;-93
2021/12/05 02:30:51;;;;;;;8.13;2.20;;;5.70;99.90;;;;;;6218667;23;20155;-92
2021/12/05 02:33:19;;;;;;;4.87;2.00;;;5.70;99.90;;;;;;6220512;23;20479;-93
2021/12/05 02:36:20;;;;;;;6.67;2.07;;;5.60;99.90;;;;;;6193359;23;20175;-91
2021/12/05 02:39:04;;;;;;;4.70;1.87;;;5.60;99.90;;;;;;6217843;23;20600;-92
2021/12/05 02:41:35;;;;;;;4.27;1.50;;;5.70;99.90;;;;;;6192220;23;20190;-90
2021/12/05 02:44:05;;;;;;;5.60;2.03;;;5.60;99.90;;;;;;6192508;23;20190;-89
2021/12/05 02:46:31;;;;;;;7.40;1.93;;;5.70;99.90;;;;;;6193602;23;20171;-95
2021/12/05 02:49:02;;;;;;;10.00;1.90;;;5.60;99.90;;;;;;6191920;23;20198;-93
2021/12/05 02:51:30;;;;;;;3.33;2.03;;;5.60;99.90;;;;;;6193330;23;20144;-88
2021/12/05 02:54:12;;;;;;;5.33;1.90;;;5.60;99.90;;;;;;6199534;23;20148;-92
2021/12/05 02:56:42;;;;;;;7.57;2.93;;;5.60;99.90;;;;;;6196325;23;20186;-91
2021/12/05 03:02:02;;;;;;;5.37;1.87;;;5.60;99.90;;;;;;6219515;23;20143;-92
2021/12/05 03:04:32;;;;;;;6.60;2.33;;;5.60;99.90;;;;;;6193281;23;20197;-93
2021/12/05 03:06:59;;;;;;;4.47;1.50;;;5.60;99.90;;;;;;6195996;23;20155;-95
2021/12/05 03:09:25;;;;;;;2.67;1.67;;;5.80;99.90;;;;;;6191965;23;20163;-93
2021/12/05 03:11:52;;;;;;;5.53;2.37;;;5.80;99.90;;;;;;6193522;23;20156;-91
2021/12/05 03:14:18;;;;;;;4.97;2.40;;;5.80;99.90;;;;;;6190449;23;20152;-88
2021/12/05 03:16:45;;;;;;;6.23;2.43;;;5.80;99.90;;;;;;6191034;23;20623;-93
2021/12/05 03:19:13;;;;;;;4.87;1.37;;;5.80;99.90;;;;;;6191696;23;20151;-94
2021/12/05 03:21:40;;;;;;;7.50;1.60;;;5.80;99.90;;;;;;6191618;23;20186;-94
2021/12/05 03:24:07;;;;;;;5.40;1.40;;;5.70;99.90;;;;;;6193644;23;20225;-93
2021/12/05 03:26:35;;;;;;;3.33;1.40;;;5.70;99.90;;;;;;6190835;23;20148;-93
2021/12/05 03:29:03;;;;;;;5.47;1.43;;;5.80;99.90;;;;;;6191698;23;20581;-91
2021/12/05 03:31:31;;;;;;;7.13;1.73;;;5.80;99.90;;;;;;6192075;23;20151;-95
2021/12/05 03:33:58;;;;;;;8.40;3.03;;;5.70;99.90;;;;;;6192777;23;20595;-95
2021/12/05 03:36:25;;;;;;;6.37;2.67;;;5.70;99.90;;;;;;6191950;23;20526;-96
2021/12/05 03:38:51;;;;;;;2.97;1.90;;;5.60;99.90;;;;;;6198016;23;20151;-94
2021/12/05 03:41:18;;;;;;;6.20;2.37;;;5.60;99.90;;;;;;6201409;23;20220;-96
2021/12/05 03:43:46;;;;;;;9.57;4.23;;;5.60;99.90;;;;;;6173998;23;20168;-96
2021/12/05 03:46:12;;;;;;;4.37;2.50;;;5.50;99.90;;;;;;6198599;23;20222;-94
2021/12/05 03:48:43;;;;;;;5.07;2.50;;;5.40;99.90;;;;;;6207814;23;20148;-94
2021/12/05 03:51:27;;;;;;;4.40;3.57;;;5.50;99.90;;;;;;6184468;23;20259;-92
2021/12/05 03:53:59;;;;;;;5.53;3.27;;;5.50;99.90;;;;;;6200614;23;20148;-91
2021/12/05 03:56:28;;;;;;;4.33;2.70;;;5.40;99.90;;;;;;6207133;23;20151;-90
2021/12/05 03:58:55;;;;;;;8.60;4.37;;;5.40;99.90;;;;;;6204108;23;20179;-90
2021/12/05 04:01:25;;;;;;;5.07;3.03;;;5.50;99.90;;;;;;6204829;23;20212;-90
2021/12/05 04:03:52;;;;;;;6.17;3.37;;;5.30;99.90;;;;;;6203373;23;20549;-90
2021/12/05 04:06:20;;;;;;;6.40;4.87;;;5.30;99.90;;;;;;6202898;23;20154;-90
2021/12/05 04:08:47;;;;;;;5.80;3.90;;;5.40;99.90;;;;;;6198799;23;20465;-92
2021/12/05 04:11:22;;;;;;;6.13;4.20;;;5.30;99.90;;;;;;6198173;23;20156;-90
2021/12/05 04:13:49;;;;;;;9.03;4.80;;;5.20;99.90;;;;;;6198507;23;20470;-90
2021/12/05 04:16:15;;;;;;;8.27;4.27;;;5.20;99.90;;;;;;6197325;23;20148;-91
2021/12/05 04:18:45;;;;;;;9.83;5.97;;;5.20;99.90;;;;;;6197264;23;20171;-90
2021/12/05 04:21:12;;;;;;;9.63;4.80;;;5.30;99.90;;;;;;6196268;23;20144;-90
2021/12/05 04:23:38;;;;;;;8.73;5.27;;;5.20;99.90;;;;;;6195531;23;20180;-90
2021/12/05 04:26:04;;;;;;;7.13;4.53;;;5.30;99.90;;;;;;6195889;23;20215;-90
2021/12/05 04:28:30;;;;;;;6.83;5.60;;;5.30;99.90;;;;;;6194950;23;20191;-91
2021/12/05 04:30:56;;;;;;;5.67;5.00;;;5.30;99.90;;;;;;6195867;23;20144;-90
2021/12/05 04:33:24;;;;;;;6.53;4.47;;;5.20;99.90;;;;;;6195089;23;20139;-92
2021/12/05 04:35:50;;;;;;;11.57;6.60;;;5.40;99.90;;;;;;6193736;23;20140;-91
2021/12/05 04:38:16;;;;;;;13.07;6.40;;;5.50;99.90;;;;;;6194401;23;20151;-90
2021/12/05 04:40:45;;;;;;;12.40;6.07;;;5.40;99.90;;;;;;6195926;23;20231;-90
2021/12/05 04:43:11;;;;;;;11.97;6.90;;;5.40;99.90;;;;;;6195076;23;20199;-91
2021/12/05 04:45:39;;;;;;;12.87;6.97;;;5.50;99.90;;;;;;6196714;23;20172;-90
2021/12/05 04:48:07;;;;;;;12.73;8.37;;;5.50;99.90;;;;;;6194939;23;20144;-91
2021/12/05 04:50:35;;;;;;;9.60;6.33;;;5.50;99.90;;;;;;6195985;23;20136;-91
2021/12/05 04:53:01;;;;;;;14.23;8.00;;;5.50;99.90;;;;;;6196580;23;20228;-90
2021/12/05 04:55:27;;;;;;;12.37;8.17;;;5.50;99.90;;;;;;6197545;23;20144;-93
2021/12/05 04:57:53;;;;;;;11.20;6.03;;;5.50;99.90;;;;;;6198227;23;20163;-91
2021/12/05 05:00:21;;;;;;;8.87;5.80;;;5.50;99.90;;;;;;6198310;23;20151;-90
2021/12/05 05:02:47;;;;;;;9.97;6.83;;;5.50;99.90;;;;;;6197562;23;20151;-91
2021/12/05 05:05:13;;;;;;;9.87;6.10;;;5.60;99.90;;;;;;6194735;23;20172;-91
2021/12/05 05:07:42;;;;;;;12.17;7.30;;;5.50;99.90;;;;;;6194019;23;20204;-91
2021/12/05 05:10:25;;;;;;;8.10;6.37;;;5.50;99.90;;;;;;6193025;23;20143;-91
2021/12/05 05:12:51;;;;;;;11.00;6.67;;;5.40;99.90;;;;;;6192597;23;20152;-91
2021/12/05 05:15:21;;;;;;;11.10;7.17;;;5.30;99.90;;;;;;6194110;23;20183;-90
2021/12/05 05:17:50;;;;;;;9.20;6.10;;;5.30;99.90;;;;;;6196091;23;20168;-90
2021/12/05 05:20:26;;;;;;;9.80;6.00;;;5.50;99.90;;;;;;6200829;23;20152;-90
2021/12/05 05:52:17;;;;;;;12.20;6.87;;;5.50;99.90;;;;;;6226229;23;20202;-93
2021/12/05 05:54:47;;;;;;;13.33;5.50;;;5.50;99.90;;;;;;6189431;23;20224;-92
2021/12/05 05:59:57;;;;;;;10.60;5.43;;;5.60;99.90;;;;;;6225931;23;20152;-94
2021/12/05 06:05:08;;;;;;;7.40;5.60;;;5.70;99.90;;;;;;6218575;23;20202;-94
2021/12/05 06:07:41;;;;;;;11.13;6.53;;;5.60;99.90;;;;;;6191560;23;20570;-92
2021/12/05 06:10:11;;;;;;;9.03;5.77;;;5.70;99.90;;;;;;6190759;23;20243;-90
2021/12/05 06:12:38;;;;;;;7.73;5.00;;;5.60;99.90;;;;;;6191894;23;20152;-92
2021/12/05 06:15:06;;;;;;;17.77;9.57;;;5.60;99.90;;;;;;6191273;23;20227;-91
2021/12/05 06:17:32;;;;;;;7.40;5.53;;;5.60;99.90;;;;;;6191594;23;20176;-93
2021/12/05 06:19:58;;;;;;;7.97;5.70;;;5.60;99.90;;;;;;6191058;23;20507;-92
2021/12/05 06:22:25;;;;;;;22.43;11.37;;;5.60;99.90;;;;;;6191428;23;20147;-90
2021/12/05 06:24:51;;;;;;;7.43;5.53;;;5.60;99.90;;;;;;6190954;23;20211;-90
2021/12/05 06:27:17;;;;;;;18.43;10.17;;;5.60;99.90;;;;;;6190933;23;20139;-89
2021/12/05 06:29:54;;;;;;;10.37;5.17;;;5.60;99.90;;;;;;6191259;23;20573;-89
2021/12/05 06:38:09;;;;;;;10.57;6.63;;;5.80;99.90;;;;;;6217647;23;20196;-91
2021/12/05 06:40:51;;;;;;;10.77;6.20;;;5.80;99.90;;;;;;6190897;23;20148;-91
2021/12/05 06:46:18;;;;;;;10.50;5.97;;;5.90;99.90;;;;;;6227780;23;20156;-92
2021/12/05 06:48:45;;;;;;;11.23;6.27;;;5.80;99.90;;;;;;6191521;23;20140;-88
2021/12/05 06:51:12;;;;;;;12.17;6.93;;;5.90;99.90;;;;;;6191091;23;20596;-89
2021/12/05 06:53:38;;;;;;;9.67;6.60;;;5.80;99.90;;;;;;6190754;23;20206;-92
2021/12/05 06:56:05;;;;;;;13.83;7.00;;;5.60;99.90;;;;;;6190621;23;20144;-90
2021/12/05 06:58:32;;;;;;;14.23;6.70;;;5.60;99.90;;;;;;6191164;23;20209;-89
2021/12/05 07:01:02;;;;;;;12.80;6.93;;;5.70;99.90;;;;;;6192584;23;20471;-96
2021/12/05 07:03:28;;;;;;;11.77;7.37;;;5.60;99.90;;;;;;6192884;23;20195;-92
2021/12/05 07:05:59;;;;;;;13.90;6.73;;;5.60;99.90;;;;;;6192582;23;20613;-96
2021/12/05 07:08:28;;;;;;;16.13;6.97;;;5.60;99.90;;;;;;6193584;23;20139;-96
2021/12/05 07:11:23;;;;;;;12.13;7.63;;;5.60;99.90;;;;;;6192979;23;20253;-93
2021/12/05 07:17:04;;;;;;;10.03;6.87;;;5.50;99.90;;;;;;6128701;23;20177;-96
2021/12/05 07:19:42;;;;;;;10.80;7.00;;;5.50;99.90;;;;;;6181305;23;20234;-95
2021/12/05 07:22:29;;;;;;;9.50;6.53;;;5.50;99.90;;;;;;6193732;23;20155;-96
2021/12/05 07:43:58;;;;;;;11.20;7.20;;;5.50;99.90;;;;;;6222204;23;20651;-92
2021/12/05 07:46:24;;;;;;;12.40;7.93;;;5.50;99.90;;;;;;6199797;23;20156;-94
2021/12/05 07:48:57;;;;;;;14.00;8.20;;;5.50;99.90;;;;;;6228361;23;20138;-94
2021/12/05 07:51:27;;;;;;;13.53;7.67;;;5.60;99.90;;;;;;6205630;23;20156;-92
2021/12/05 07:54:06;;;;;;;15.20;8.93;;;5.70;99.90;;;;;;6203856;23;20155;-96
2021/12/05 07:56:41;;;;;;;14.83;8.67;;;5.60;99.90;;;;;;6193405;23;20144;-94
2021/12/05 07:59:20;;;;;;;14.33;7.40;;;5.70;99.90;;;;;;6191855;23;20144;-94
2021/12/05 08:15:57;;;;;;;14.10;8.33;;;5.60;99.90;;;;;;6218338;23;20478;-94
2021/12/05 08:18:22;;;;;;;12.77;7.03;;;5.60;99.90;;;;;;6192129;23;20217;-96
2021/12/05 08:20:48;;;;;;;11.60;7.40;;;5.50;99.90;;;;;;6192687;23;20148;-95
2021/12/05 08:23:16;;;;;;;11.10;7.33;;;5.50;99.90;;;;;;6192581;23;20222;-93
2021/12/05 08:25:48;;;;;;;9.87;7.03;;;5.50;99.90;;;;;;6192746;23;20179;-94
2021/12/05 08:28:38;;;;;;;12.23;7.03;;;5.50;99.90;;;;;;6191002;23;20574;-90
2021/12/05 08:31:14;;;;;;;9.97;7.10;;;5.40;99.90;;;;;;6215240;23;20163;-92
2021/12/05 08:33:57;;;;;;;13.27;7.57;;;5.40;99.90;;;;;;6191084;23;20160;-93
2021/12/05 09:52:38;;;;;;;16.33;11.10;;;6.20;99.90;;;;;;6216609;23;20191;-82
2021/12/05 10:03:35;;;;;;;15.83;8.80;;;6.50;99.90;;;;;;6216127;23;20537;-83
2021/12/05 10:16:20;;;;;;;14.33;8.87;;;6.90;99.90;;;;;;6215704;23;20507;-82
2021/12/05 10:38:17;;;;;;;11.97;7.70;;;7.10;99.90;;;;;;6215290;23;20156;-80
2021/12/05 10:41:19;;;;;;;9.83;7.10;;;7.10;99.90;;;;;;6187455;23;20158;-82
2021/12/05 10:43:50;;;;;;;11.47;7.70;;;7.20;99.90;;;;;;6186711;23;20738;-80
2021/12/05 10:46:18;;;;;;;11.10;7.47;;;7.20;99.90;;;;;;6213676;23;20160;-79
2021/12/05 10:48:55;;;;;;;11.80;7.33;;;7.20;99.90;;;;;;6214839;23;20144;-80
2021/12/05 10:51:25;;;;;;;11.77;7.20;;;7.10;99.90;;;;;;6183974;23;20151;-80
2021/12/05 10:53:51;;;;;;;10.03;6.97;;;7.10;99.90;;;;;;6189093;23;20144;-79
2021/12/05 10:56:22;;;;;;;9.17;7.20;;;7.10;99.90;;;;;;6188975;23;20159;-82
2021/12/05 10:58:51;;;;;;;10.20;7.50;;;7.00;99.90;;;;;;6187549;23;20155;-83
2021/12/05 11:01:22;;;;;;;9.67;7.13;;;7.00;99.90;;;;;;6188766;23;20164;-81
2021/12/05 11:03:54;;;;;;;8.60;6.70;;;7.00;99.90;;;;;;6188993;23;20178;-81
2021/12/05 11:06:32;;;;;;;11.30;7.40;;;7.20;99.90;;;;;;6189151;23;20203;-80
2021/12/05 11:09:15;;;;;;;11.57;7.77;;;7.30;99.90;;;;;;6215937;23;20139;-81
2021/12/05 11:11:44;;;;;;;11.93;7.37;;;7.20;99.90;;;;;;6188698;23;20194;-83
2021/12/05 11:14:17;;;;;;;11.57;7.40;;;7.30;99.90;;;;;;6188914;23;20527;-84
2021/12/05 11:16:50;;;;;;;11.00;7.83;;;7.40;99.90;;;;;;6187869;23;20248;-83
2021/12/05 11:19:29;;;;;;;10.97;7.57;;;7.50;99.90;;;;;;6214012;23;20227;-81
2021/12/05 11:22:03;;;;;;;9.30;7.07;;;7.50;99.90;;;;;;6188391;23;20148;-80
2021/12/05 11:24:37;;;;;;;11.93;8.30;;;7.50;99.90;;;;;;6189862;23;20287;-82
2021/12/05 11:27:08;;;;;;;9.87;7.70;;;7.50;99.90;;;;;;6189311;23;20151;-82
2021/12/05 11:29:43;;;;;;;10.37;7.10;;;7.50;99.90;;;;;;6189296;23;20155;-85
2021/12/05 11:32:13;;;;;;;10.73;7.03;;;7.50;99.90;;;;;;6188449;23;20152;-85
2021/12/05 11:34:39;;;;;;;12.07;7.70;;;7.60;99.90;;;;;;6189236;23;20167;-82
2021/12/05 11:37:05;;;;;;;10.67;7.47;;;7.70;99.90;;;;;;6188223;23;20574;-83
2021/12/05 11:39:30;;;;;;;9.70;7.10;;;7.80;99.90;;;;;;6180219;23;20155;-81
2021/12/05 11:41:56;;;;;;;9.30;7.40;;;7.90;99.90;;;;;;6188062;23;20148;-82
2021/12/05 11:44:24;;;;;;;9.90;7.07;;;7.90;99.90;;;;;;6215415;23;20183;-84
2021/12/05 11:46:50;;;;;;;9.40;7.00;;;7.90;99.90;;;;;;6189147;23;20248;-84
2021/12/05 11:49:25;;;;;;;11.13;7.47;;;7.70;99.90;;;;;;6190421;23;20156;-83
2021/12/05 11:51:58;;;;;;;9.23;6.50;;;7.90;99.90;;;;;;6190605;23;20147;-82
2021/12/05 11:54:27;;;;;;;10.00;7.07;;;7.90;99.90;;;;;;6189292;23;20160;-82
2021/12/05 11:57:03;;;;;;;8.90;7.40;;;8.00;99.90;;;;;;6188614;23;20481;-82
2021/12/05 11:59:36;;;;;;;8.13;6.40;;;8.00;99.90;;;;;;6215497;23;20147;-82
2021/12/05 12:02:06;;;;;;;8.93;7.17;;;7.90;99.90;;;;;;6188484;23;20523;-84
2021/12/05 12:04:43;;;;;;;9.87;6.73;;;8.00;99.90;;;;;;6188791;23;20176;-82
2021/12/05 12:07:14;;;;;;;9.47;6.63;;;8.00;99.90;;;;;;6189072;23;20157;-82
2021/12/05 12:09:40;;;;;;;9.47;6.97;;;8.10;99.90;;;;;;6188942;23;20179;-84
2021/12/05 12:12:08;;;;;;;11.17;7.27;;;8.10;99.90;;;;;;6215271;23;20145;-84
2021/12/05 12:14:33;;;;;;;8.07;6.87;;;8.10;99.90;;;;;;6214601;23;20235;-82
2021/12/05 12:16:59;;;;;;;10.33;6.20;;;7.90;99.90;;;;;;6215407;23;20161;-82
2021/12/05 12:19:25;;;;;;;8.90;6.23;;;7.90;99.90;;;;;;6188990;23;20151;-81
2021/12/05 12:21:56;;;;;;;6.93;6.20;;;7.70;99.90;;;;;;6188489;23;20206;-82
2021/12/05 12:24:22;;;;;;;7.13;6.17;;;7.70;99.90;;;;;;6188604;23;20183;-81
2021/12/05 12:26:48;;;;;;;8.43;5.60;;;7.70;99.90;;;;;;6215288;23;20216;-82
2021/12/05 12:29:14;;;;;;;6.50;5.60;;;7.70;99.90;;;;;;6188680;23;20181;-81
2021/12/05 12:31:42;;;;;;;9.03;6.30;;;8.00;99.90;;;;;;6189515;23;20191;-82
2021/12/05 12:34:14;;;;;;;10.50;6.20;;;8.10;99.90;;;;;;6189489;23;20144;-81
2021/12/05 12:36:42;;;;;;;7.53;5.80;;;8.00;99.90;;;;;;6215781;23;20160;-81
2021/12/05 12:39:20;;;;;;;7.37;5.73;;;8.10;99.90;;;;;;6188567;23;20481;-81
2021/12/05 12:42:12;;;;;;;7.70;6.10;;;8.10;99.90;;;;;;6188640;23;20160;-81
2021/12/05 12:45:00;;;;;;;7.03;5.20;;;8.10;99.90;;;;;;6215557;23;20263;-84
2021/12/05 12:47:54;;;;;;;8.60;5.47;;;8.10;99.90;;;;;;6188779;23;20179;-83
2021/12/05 12:50:22;;;;;;;9.77;7.20;;;8.10;99.90;;;;;;6174690;23;20156;-83
2021/12/05 12:52:57;;;;;;;6.70;5.70;;;8.10;99.90;;;;;;6188696;23;20480;-82
2021/12/05 12:55:27;;;;;;;10.03;6.13;;;8.10;99.90;;;;;;6188807;23;20155;-80
2021/12/05 12:57:53;;;;;;;8.97;5.53;;;8.00;99.90;;;;;;6188425;23;20236;-81
2021/12/05 13:00:23;;;;;;;5.93;5.33;;;7.80;99.90;;;;;;6189118;23;20180;-81
2021/12/05 13:10:49;;;;;;;5.63;4.97;;;7.70;99.90;;;;;;6215606;23;20148;-84
2021/12/05 13:13:28;;;;;;;7.60;5.03;;;7.60;99.90;;;;;;6216742;23;20151;-82
2021/12/05 13:15:59;;;;;;;10.33;5.30;;;7.80;99.90;;;;;;6190930;23;20226;-81
2021/12/05 13:18:31;;;;;;;5.73;5.00;;;7.80;99.90;;;;;;6190626;23;20175;-84
2021/12/05 13:20:59;;;;;;;5.70;5.03;;;7.80;99.90;;;;;;6191378;23;20159;-81
2021/12/05 13:23:50;;;;;;;7.30;5.30;;;7.80;99.90;;;;;;6190181;23;20244;-82
2021/12/05 13:26:36;;;;;;;6.13;5.43;;;7.80;99.90;;;;;;6190791;23;20244;-84
2021/12/05 13:29:25;;;;;;;6.33;5.17;;;7.80;99.90;;;;;;6190734;23;20152;-82
2021/12/05 13:32:11;;;;;;;6.43;4.80;;;8.00;99.90;;;;;;6191104;23;20144;-81
2021/12/05 13:34:50;;;;;;;6.47;5.10;;;7.90;99.90;;;;;;6190735;23;20297;-81
2021/12/05 13:37:16;;;;;;;7.90;5.20;;;7.90;99.90;;;;;;6216941;23;20593;-81
2021/12/05 13:40:16;;;;;;;7.03;5.13;;;8.00;99.90;;;;;;6217195;23;20133;-82
2021/12/05 13:42:48;;;;;;;6.00;4.67;;;8.00;99.90;;;;;;6190422;23;20224;-81
2021/12/05 13:45:26;;;;;;;6.13;4.90;;;7.90;99.90;;;;;;6217038;23;20177;-81
2021/12/05 13:47:51;;;;;;;5.50;4.53;;;7.90;99.90;;;;;;6190209;23;20149;-82
2021/12/05 13:50:23;;;;;;;6.33;4.70;;;7.90;99.90;;;;;;6190775;23;20163;-81
2021/12/05 13:52:49;;;;;;;5.00;4.33;;;7.90;99.90;;;;;;6189912;23;20480;-81
2021/12/05 13:55:34;;;;;;;5.53;4.67;;;8.00;99.90;;;;;;6190890;23;20173;-81
2021/12/05 13:58:34;;;;;;;5.70;4.37;;;8.20;99.90;;;;;;6190237;23;20215;-82
2021/12/05 14:01:20;;;;;;;5.93;4.87;;;8.10;99.90;;;;;;6190367;23;20227;-81
2021/12/05 14:04:01;;;;;;;5.73;4.07;;;8.10;99.90;;;;;;6216897;23;20145;-81
2021/12/05 14:06:36;;;;;;;5.53;4.43;;;8.30;99.90;;;;;;6216841;23;20233;-80
2021/12/05 14:09:21;;;;;;;4.90;4.37;;;8.30;99.90;;;;;;6216937;23;20133;-82
2021/12/05 14:11:53;;;;;;;6.23;4.23;;;8.20;99.90;;;;;;6216768;23;20147;-82
2021/12/05 14:14:26;;;;;;;4.53;3.97;;;8.30;99.90;;;;;;6216779;23;20209;-81
2021/12/05 14:16:53;;;;;;;5.20;3.90;;;8.20;99.90;;;;;;6216801;23;20172;-81
2021/12/05 14:19:22;;;;;;;5.33;4.20;;;8.10;99.90;;;;;;6190365;23;20155;-82
2021/12/05 14:21:50;;;;;;;6.57;4.70;;;8.20;99.90;;;;;;6189714;23;20152;-82
2021/12/05 14:24:20;;;;;;;5.33;4.50;;;8.20;99.90;;;;;;6189502;23;20222;-81
2021/12/05 14:26:51;;;;;;;4.73;3.90;;;8.30;99.90;;;;;;6190306;23;20290;-81
2021/12/05 14:29:20;;;;;;;5.63;4.47;;;8.20;99.90;;;;;;6190129;23;20151;-81
2021/12/05 14:31:51;;;;;;;5.60;4.33;;;8.20;99.90;;;;;;6190391;23;20154;-82
2021/12/05 14:34:18;;;;;;;5.37;4.13;;;8.20;99.90;;;;;;6189937;23;20160;-81
2021/12/05 14:36:49;;;;;;;5.07;4.23;;;8.20;99.90;;;;;;6216597;23;20132;-81
2021/12/05 14:39:15;;;;;;;7.77;5.00;;;8.40;99.90;;;;;;6190173;23;20158;-81
2021/12/05 14:41:42;;;;;;;7.20;5.17;;;8.30;99.90;;;;;;6190074;23;20526;-81
2021/12/05 14:44:08;;;;;;;7.43;5.80;;;8.20;99.90;;;;;;6216632;23;20156;-81
2021/12/05 14:46:42;;;;;;;7.43;5.77;;;8.20;99.90;;;;;;6190082;23;20229;-81
2021/12/05 14:49:08;;;;;;;7.40;5.70;;;8.20;99.90;;;;;;6189837;23;20149;-81
2021/12/05 14:51:37;;;;;;;10.47;6.13;;;8.30;99.90;;;;;;6189776;23;20152;-81
2021/12/05 14:54:04;;;;;;;9.43;6.50;;;8.20;99.90;;;;;;6190173;23;20159;-81
2021/12/05 14:56:33;;;;;;;8.70;6.33;;;8.20;99.90;;;;;;6190178;23;20144;-81
2021/12/05 14:59:04;;;;;;;7.80;6.40;;;8.30;99.90;;;;;;6190478;23;20156;-82
2021/12/05 15:01:30;;;;;;;10.00;6.00;;;8.30;99.90;;;;;;6190069;23;20255;-82
2021/12/05 15:03:55;;;;;;;10.00;7.03;;;8.20;99.90;;;;;;6189976;23;20235;-81
2021/12/05 15:06:34;;;;;;;9.97;6.57;;;8.10;99.90;;;;;;6189602;23;20186;-81
2021/12/05 15:09:00;;;;;;;14.53;6.80;;;8.10;99.90;;;;;;6216573;23;20139;-81
2021/12/05 15:11:26;;;;;;;8.63;6.47;;;8.10;99.90;;;;;;6189917;23;20157;-81
2021/12/05 15:14:00;;;;;;;8.90;6.70;;;8.10;99.90;;;;;;6189515;23;20190;-83
2021/12/05 15:16:26;;;;;;;11.37;7.90;;;8.20;99.90;;;;;;6189510;23;20215;-81
2021/12/05 15:18:51;;;;;;;11.07;8.10;;;8.20;99.90;;;;;;6189492;23;20511;-81
2021/12/05 15:21:17;;;;;;;9.80;6.93;;;8.30;99.90;;;;;;6189886;23;20233;-81
2021/12/05 15:23:43;;;;;;;10.97;8.17;;;8.20;99.90;;;;;;6189728;23;20179;-83
2021/12/05 15:26:11;;;;;;;10.83;7.63;;;8.10;99.90;;;;;;6190118;23;20263;-81
2021/12/05 15:28:38;;;;;;;13.87;8.37;;;8.00;99.90;;;;;;6189677;23;20611;-80
2021/12/05 15:31:05;;;;;;;11.77;7.97;;;8.00;99.90;;;;;;6189781;23;20150;-82
2021/12/05 15:33:33;;;;;;;11.53;8.00;;;8.00;99.90;;;;;;6189328;23;20159;-81
2021/12/05 15:36:00;;;;;;;12.00;8.17;;;7.90;99.90;;;;;;6216005;23;20196;-81
2021/12/05 15:38:29;;;;;;;13.03;8.53;;;7.90;99.90;;;;;;6189302;23;20249;-82
2021/12/05 15:41:10;;;;;;;11.73;8.07;;;7.90;99.90;;;;;;6189207;23;20151;-83
2021/12/05 15:43:38;;;;;;;12.80;8.17;;;7.80;99.90;;;;;;6208899;23;20172;-82
2021/12/05 15:46:07;;;;;;;12.87;8.93;;;7.80;99.90;;;;;;6189173;23;20266;-81
2021/12/05 15:48:36;;;;;;;18.17;8.87;;;7.90;99.90;;;;;;6215808;23;20499;-81
2021/12/05 15:51:04;;;;;;;14.67;8.97;;;7.80;99.90;;;;;;6189526;23;20602;-81
2021/12/05 15:53:33;;;;;;;12.13;8.60;;;8.00;99.90;;;;;;6189187;23;20151;-81
2021/12/05 15:56:03;;;;;;;13.03;9.43;;;8.00;99.90;;;;;;6189051;23;20187;-81
2021/12/05 15:58:32;;;;;;;14.33;9.07;;;7.90;99.90;;;;;;6216165;23;20194;-81
2021/12/05 16:01:03;;;;;;;12.77;8.67;;;7.90;99.90;;;;;;6215678;23;20148;-83
2021/12/05 16:03:46;;;;;;;15.27;9.40;;;7.80;99.90;;;;;;6215800;23;20148;-83
2021/12/05 16:06:14;;;;;;;15.27;8.30;;;7.70;99.90;;;;;;6215774;23;20187;-83
2021/12/05 16:08:41;;;;;;;11.93;8.50;;;7.70;99.90;;;;;;6215840;23;20140;-81
2021/12/05 16:11:19;;;;;;;13.93;9.43;;;7.80;99.90;;;;;;6215718;23;20139;-83
2021/12/05 16:13:47;;;;;;;11.17;8.53;;;7.90;99.90;;;;;;6215707;23;20182;-82
2021/12/05 16:16:17;;;;;;;13.43;8.67;;;7.70;99.90;;;;;;6215555;23;20217;-82
2021/12/05 16:18:48;;;;;;;12.67;8.80;;;7.60;99.90;;;;;;6188821;23;20205;-83
2021/12/05 16:21:17;;;;;;;15.13;9.23;;;7.90;99.90;;;;;;6188745;23;20609;-81
2021/12/05 16:23:42;;;;;;;13.90;9.00;;;7.90;99.90;;;;;;6189348;23;20143;-81
2021/12/05 16:26:14;;;;;;;11.80;8.67;;;7.90;99.90;;;;;;6189029;23;20216;-81
2021/12/05 16:37:56;;;;;;;22.73;15.70;;;7.80;99.90;;;;;;6189076;22;20203;-80
2021/12/05 16:40:22;;;;;;;20.33;12.17;;;7.90;99.90;;;;;;6189065;23;20148;-78
2021/12/05 16:43:06;;;;;;;17.60;10.90;;;7.90;99.90;;;;;;6215111;23;20195;-77
2021/12/05 16:45:38;;;;;;;16.57;10.77;;;7.80;99.90;;;;;;6215025;23;20293;-77
2021/12/05 16:48:04;;;;;;;18.83;11.97;;;8.00;99.90;;;;;;6208994;23;20163;-76
2021/12/05 16:50:30;;;;;;;23.23;15.03;;;8.20;99.90;;;;;;6210112;23;20152;-77
2021/12/05 16:52:56;;;;;;;19.80;13.27;;;8.20;99.90;;;;;;6214547;23;20169;-77
2021/12/05 16:55:27;;;;;;;23.10;13.33;;;8.10;99.90;;;;;;6214787;23;20218;-76
2021/12/05 16:58:16;;;;;;;23.97;13.87;;;8.00;99.90;;;;;;6214726;23;20151;-76
2021/12/05 17:00:45;;;;;;;20.50;12.60;;;8.00;99.90;;;;;;6214182;23;20155;-77
2021/12/05 17:03:18;;;;;;;22.50;13.20;;;8.00;99.90;;;;;;6214539;23;20141;-76
2021/12/05 17:05:48;;;;;;;22.60;14.37;;;7.90;99.90;;;;;;6214215;23;20645;-78
2021/12/05 17:08:18;;;;;;;23.40;14.43;;;8.00;99.90;;;;;;6214712;23;20148;-78
2021/12/05 17:10:48;;;;;;;24.97;14.07;;;8.00;99.90;;;;;;6214111;23;20156;-77
2021/12/05 17:13:14;;;;;;;20.37;13.77;;;8.00;99.90;;;;;;6214709;23;20207;-78
2021/12/05 17:16:10;;;;;;;23.37;14.20;;;8.00;99.90;;;;;;6214035;23;20573;-77
2021/12/05 17:18:58;;;;;;;19.70;13.03;;;8.10;99.90;;;;;;6174764;23;20157;-77
2021/12/05 17:21:49;;;;;;;20.77;12.70;;;8.00;99.90;;;;;;6184675;23;20146;-79
2021/12/05 17:24:21;;;;;;;18.10;12.10;;;8.20;99.90;;;;;;6176042;23;20184;-79
2021/12/05 17:26:54;;;;;;;19.53;12.00;;;8.10;99.90;;;;;;6184509;23;20207;-78
2021/12/05 17:29:22;;;;;;;18.60;12.40;;;8.00;99.90;;;;;;6183481;23;20562;-79
2021/12/05 17:31:58;;;;;;;18.90;11.63;;;7.90;99.90;;;;;;6182983;23;20192;-82
2021/12/05 17:34:34;;;;;;;15.53;11.10;;;7.80;99.90;;;;;;6183352;23;20156;-80
2021/12/05 17:37:05;;;;;;;15.77;11.40;;;7.70;99.90;;;;;;6183399;23;20143;-82
2021/12/05 17:39:34;;;;;;;15.77;11.93;;;7.70;99.90;;;;;;6181825;23;20170;-82
2021/12/05 17:42:08;;;;;;;17.80;11.20;;;7.90;99.90;;;;;;6184257;23;20141;-78
2021/12/05 17:44:34;;;;;;;17.43;10.90;;;8.10;99.90;;;;;;6183595;23;20169;-78
2021/12/05 17:47:03;;;;;;;18.23;11.03;;;8.10;99.90;;;;;;6183408;23;20147;-79
2021/12/05 17:49:30;;;;;;;18.20;11.40;;;8.20;99.90;;;;;;6180126;23;20185;-81
2021/12/05 17:51:58;;;;;;;15.70;11.00;;;8.00;99.90;;;;;;6183484;23;20171;-78
2021/12/05 17:54:32;;;;;;;17.60;11.03;;;7.80;99.90;;;;;;6183435;23;20502;-76
2021/12/05 17:57:05;;;;;;;16.80;10.50;;;7.50;99.90;;;;;;6157400;23;20566;-78
2021/12/05 17:59:47;;;;;;;15.43;10.63;;;7.30;99.90;;;;;;6185047;23;20133;-79
2021/12/05 18:04:59;;;;;;;15.53;10.83;;;7.10;99.90;;;;;;6186303;23;20186;-76
2021/12/05 18:07:24;;;;;;;14.87;9.97;;;6.90;99.90;;;;;;6185788;23;20186;-79
2021/12/05 18:09:50;;;;;;;16.27;11.07;;;7.00;99.90;;;;;;6185966;23;20142;-81
2021/12/05 18:35:31;;;;;;;19.90;11.20;;;7.30;99.90;;;;;;6222403;22;20295;-87
2021/12/05 18:38:01;;;;;;;17.20;10.70;;;7.20;99.90;;;;;;6206071;23;20179;-89
2021/12/05 18:40:27;;;;;;;16.27;10.93;;;7.10;99.90;;;;;;6226348;23;20164;-88
2021/12/05 18:42:54;;;;;;;18.43;11.30;;;7.10;99.90;;;;;;6199959;23;20144;-87
2021/12/05 18:45:23;;;;;;;17.33;11.17;;;7.30;99.90;;;;;;6197075;23;20190;-88
2021/12/05 18:47:49;;;;;;;18.20;11.73;;;7.30;99.90;;;;;;6197450;23;20186;-87
2021/12/05 18:50:15;;;;;;;20.23;12.27;;;7.40;99.90;;;;;;6197206;23;20144;-87
2021/12/05 18:52:42;;;;;;;19.17;12.33;;;7.50;99.90;;;;;;6196789;23;20240;-87
2021/12/05 18:55:16;;;;;;;20.67;12.43;;;7.40;99.90;;;;;;6196104;23;20148;-87
2021/12/05 18:57:42;;;;;;;19.33;11.70;;;7.50;99.90;;;;;;6195195;23;20152;-87
2021/12/05 19:00:14;;;;;;;16.27;11.53;;;7.50;99.90;;;;;;6197644;23;20454;-87
2021/12/05 19:05:51;;;;;;;19.03;12.33;;;8.00;99.90;;;;;;6225333;23;20203;-87
2021/12/05 19:13:41;;;;;;;17.03;11.57;;;7.50;99.90;;;;;;6223808;23;20170;-88
2021/12/05 19:16:08;;;;;;;19.93;12.13;;;7.60;99.90;;;;;;6201193;23;20518;-88
2021/12/05 19:18:34;;;;;;;22.23;12.80;;;7.60;99.90;;;;;;6199387;23;20152;-88
2021/12/05 19:21:03;;;;;;;20.97;12.00;;;7.50;99.90;;;;;;6199843;23;20148;-88
2021/12/05 19:23:36;;;;;;;15.57;12.17;;;7.50;99.90;;;;;;6202293;23;20172;-88